Current | Forecast
Updated: 1:00 PM +05 on October 21, 2017
Observed at Chelyabinsk, Russia
Temperature 32°F
Windchill 21°F
Humidity 55%
Dew Point 18°F
Wind WNW at 18 mph
Pressure 29.77 in (Falling)
Conditions Scattered Clouds
Visibility 6.2 miles
UV 2 out of 16
Clouds Scattered Clouds (SCT) : 3000 ft
Yesterday's Maximum 43°F
Yesterday's Minimum 32°F approx.
Yesterday's Heating Degree Days 28 approx.
Sunrise7:32 AM +05
Sunset5:36 PM +05
Moon Rise8:49 AM +05
Moon Set6:44 PM +05
Moon PhaseMoon Phase
New Moon
Raw METARMETAR USCC 210800Z 29008MPS 9999 SCT030CB 00/M08 Q1008 R27/290050 TEMPO 0500 +SHSN VV002 RMK QFE736


Monday
. High: 69° F.
Tuesday
. High: 73° F.
Wednesday
. High: 82° F.
Thursday
. High: 64° F.
Friday
. High: 50° F.
Saturday
. High: 51° F.
Sunday
. High: 50° F.
Monday
. High: 60° F.

Units: English | Metric

Find the Weather for any City, State or Zipcode, or Country:

U.S. State List | Severe Weather | Tropical Storms | Ski Conditions
United States | Canada | Central America | South America | Asia | Europe | Australia | Africa | Islands

Weather Underground

© Copyright 2017
The Weather Company, LLC